This is the latest recevied weather packets stored in our database for station/object K5GHS-1. If no packets are shown the sender has not sent any weather packets the latest 10 day(s).
| Time | Temp. | Humidity | Pressure | Rain* | Wind** | Luminosity | Snow |
|---|---|---|---|---|---|---|---|
| 1778085218 | 12.22° C | 92% | 1013.7 hPa | 0 mm | - | 41 W/m² | - |
| 1778084309 | 12.22° C | 92% | 1013.1 hPa | 0 mm | - | 97 W/m² | - |
| 1778078027 | 12.22° C | 82% | 1013.1 hPa | 0 mm | - | 39 W/m² | - |
| 1778077423 | 12.22° C | 83% | 1012.7 hPa | 0 mm | - | 46 W/m² | - |
| 1778077121 | 12.22° C | 83% | 1012.4 hPa | 0 mm | - | 71 W/m² | - |
| 1778076819 | 12.22° C | 83% | 1012.3 hPa | 0 mm | - | 59 W/m² | - |
| 1778076517 | 12.22° C | 83% | 1012.4 hPa | 0 mm | - | 50 W/m² | - |
| 1778074697 | 12.22° C | 84% | 1011.9 hPa | 0 mm | - | 45 W/m² | - |
| 1778074394 | 11.67° C | 84% | 1012.1 hPa | 0 mm | - | 40 W/m² | - |
| 1778073788 | 11.67° C | 86% | 1011.6 hPa | 0 mm | - | 21 W/m² | - |
| 1778072575 | 11.67° C | 87% | 1011.4 hPa | 0 mm | - | 12 W/m² | - |
| 1778070762 | 11.67° C | 85% | 1011.3 hPa | 0 mm | - | 4 W/m² | - |
| 1778070156 | 11.67° C | 85% | 1011.4 hPa | 0 mm | - | 5 W/m² | - |
| 1778069550 | 11.67° C | 85% | 1011 hPa | 0 mm | - | 5 W/m² | - |
| 1778069247 | 11.67° C | 85% | 1011.1 hPa | 0 mm | - | 3 W/m² | - |
| 1778068945 | 11.67° C | 84% | 1011 hPa | 0 mm | - | 1 W/m² | - |
| 1778068643 | 11.67° C | 84% | 1010.9 hPa | 0 mm | - | 0 W/m² | - |
| 1778066223 | 12.78° C | 81% | 1010.2 hPa | 0 mm | - | 0 W/m² | - |
| 1778065013 | 12.78° C | 79% | 1010 hPa | 0 mm | - | 0 W/m² | - |
| 1778063801 | 12.78° C | 77% | 1009.7 hPa | 0 mm | - | 0 W/m² | - |
| 1778061077 | 13.33° C | 76% | 1008.9 hPa | 0 mm | - | 0 W/m² | - |
| 1778060171 | 13.33° C | 76% | 1009 hPa | 0 mm | - | 0 W/m² | - |
| 1778059868 | 13.33° C | 76% | 1008.9 hPa | 0 mm | - | 0 W/m² | - |
| 1778059566 | 13.89° C | 75% | 1008.8 hPa | 0 mm | - | 0 W/m² | - |
| 1778058960 | 13.89° C | 75% | 1008.9 hPa | 0 mm | - | 0 W/m² | - |
* Rain latest hour (hover to see other rain measurements)
** Current wind speed in m/s (hover to see current wind gust speed)